sensor_id;sensor_type;location;lat;lon;timestamp;pressure;altitude;pressure_sealevel;temperature;humidity
4024;BME280;2026;51.002;13.668;2024-01-06T00:03:39;97904.22;;;3.61;77.37
4024;BME280;2026;51.002;13.668;2024-01-06T00:08:42;97902.47;;;3.31;78.35
4024;BME280;2026;51.002;13.668;2024-01-06T00:13:46;97912.63;;;3.41;78.22
4024;BME280;2026;51.002;13.668;2024-01-06T00:18:50;97918.19;;;2.79;79.82
4024;BME280;2026;51.002;13.668;2024-01-06T00:23:53;97912.16;;;2.63;81.36
4024;BME280;2026;51.002;13.668;2024-01-06T00:28:58;97914.16;;;2.91;80.07
4024;BME280;2026;51.002;13.668;2024-01-06T00:34:02;97923.34;;;3.02;79.56
4024;BME280;2026;51.002;13.668;2024-01-06T00:39:05;97938.28;;;2.93;79.44
4024;BME280;2026;51.002;13.668;2024-01-06T00:44:09;97945.47;;;3.06;79.07
4024;BME280;2026;51.002;13.668;2024-01-06T00:49:12;97942.59;;;3.01;78.83
4024;BME280;2026;51.002;13.668;2024-01-06T00:54:15;97948.91;;;2.91;78.83
4024;BME280;2026;51.002;13.668;2024-01-06T00:59:20;97954.94;;;3.07;79.30
4024;BME280;2026;51.002;13.668;2024-01-06T01:04:22;97949.00;;;2.98;79.07
4024;BME280;2026;51.002;13.668;2024-01-06T01:09:26;97959.34;;;3.06;77.76
4024;BME280;2026;51.002;13.668;2024-01-06T01:14:30;97960.41;;;2.97;77.76
4024;BME280;2026;51.002;13.668;2024-01-06T01:19:33;97966.19;;;2.69;78.59
4024;BME280;2026;51.002;13.668;2024-01-06T01:24:36;97957.50;;;2.77;78.69
4024;BME280;2026;51.002;13.668;2024-01-06T01:29:41;97950.84;;;2.89;78.02
4024;BME280;2026;51.002;13.668;2024-01-06T01:34:44;97960.44;;;2.59;78.89
4024;BME280;2026;51.002;13.668;2024-01-06T01:39:47;97969.38;;;2.80;78.71
4024;BME280;2026;51.002;13.668;2024-01-06T01:44:51;97962.06;;;2.60;78.68
4024;BME280;2026;51.002;13.668;2024-01-06T01:49:54;97956.31;;;2.42;78.57
4024;BME280;2026;51.002;13.668;2024-01-06T01:54:58;97961.72;;;2.63;77.52
4024;BME280;2026;51.002;13.668;2024-01-06T02:00:03;97956.72;;;2.53;78.41
4024;BME280;2026;51.002;13.668;2024-01-06T02:05:26;97975.00;;;2.53;77.13
4024;BME280;2026;51.002;13.668;2024-01-06T02:10:29;97976.59;;;2.54;76.51
4024;BME280;2026;51.002;13.668;2024-01-06T02:15:34;97973.88;;;2.48;76.71
4024;BME280;2026;51.002;13.668;2024-01-06T02:20:37;97960.44;;;2.36;77.67
4024;BME280;2026;51.002;13.668;2024-01-06T02:25:44;97964.91;;;2.27;77.89
4024;BME280;2026;51.002;13.668;2024-01-06T02:30:47;97958.81;;;2.35;77.47
4024;BME280;2026;51.002;13.668;2024-01-06T02:35:50;97965.19;;;2.32;76.89
4024;BME280;2026;51.002;13.668;2024-01-06T02:40:54;97962.53;;;2.17;76.59
4024;BME280;2026;51.002;13.668;2024-01-06T02:45:57;97973.00;;;2.09;77.06
4024;BME280;2026;51.002;13.668;2024-01-06T02:51:00;97978.69;;;2.13;77.24
4024;BME280;2026;51.002;13.668;2024-01-06T02:56:09;97986.72;;;2.03;77.50
4024;BME280;2026;51.002;13.668;2024-01-06T03:01:12;97989.66;;;2.00;76.77
4024;BME280;2026;51.002;13.668;2024-01-06T03:06:16;97988.47;;;2.11;76.42
4024;BME280;2026;51.002;13.668;2024-01-06T03:11:20;97987.34;;;2.05;76.43
4024;BME280;2026;51.002;13.668;2024-01-06T03:16:23;97997.22;;;1.87;76.55
4024;BME280;2026;51.002;13.668;2024-01-06T03:21:26;97995.25;;;1.89;76.50
4024;BME280;2026;51.002;13.668;2024-01-06T03:26:30;97987.50;;;1.80;76.40
4024;BME280;2026;51.002;13.668;2024-01-06T03:31:33;98004.22;;;1.86;76.76
4024;BME280;2026;51.002;13.668;2024-01-06T03:36:36;98002.00;;;1.75;76.64
4024;BME280;2026;51.002;13.668;2024-01-06T03:41:41;97998.41;;;1.76;76.19
4024;BME280;2026;51.002;13.668;2024-01-06T03:46:44;98006.22;;;1.76;76.72
4024;BME280;2026;51.002;13.668;2024-01-06T03:51:46;98008.44;;;1.56;76.82
4024;BME280;2026;51.002;13.668;2024-01-06T03:56:51;98005.34;;;1.44;77.70
4024;BME280;2026;51.002;13.668;2024-01-06T04:01:54;98004.09;;;1.32;78.78
4024;BME280;2026;51.002;13.668;2024-01-06T04:06:57;98001.63;;;1.46;77.78
4024;BME280;2026;51.002;13.668;2024-01-06T04:12:01;98008.44;;;1.47;77.51
4024;BME280;2026;51.002;13.668;2024-01-06T04:17:04;98019.72;;;1.32;77.59
4024;BME280;2026;51.002;13.668;2024-01-06T04:22:07;98008.84;;;1.20;77.92
4024;BME280;2026;51.002;13.668;2024-01-06T04:27:11;98007.66;;;1.31;77.60
4024;BME280;2026;51.002;13.668;2024-01-06T04:32:14;98013.56;;;1.24;77.72
4024;BME280;2026;51.002;13.668;2024-01-06T04:37:17;98020.38;;;1.25;77.57
4024;BME280;2026;51.002;13.668;2024-01-06T04:42:22;98017.94;;;1.24;77.50
4024;BME280;2026;51.002;13.668;2024-01-06T04:47:25;98011.47;;;0.95;78.36
4024;BME280;2026;51.002;13.668;2024-01-06T04:52:29;98020.91;;;1.04;78.06
4024;BME280;2026;51.002;13.668;2024-01-06T04:57:34;98028.19;;;1.01;78.49
4024;BME280;2026;51.002;13.668;2024-01-06T05:02:37;98030.66;;;1.02;77.89
4024;BME280;2026;51.002;13.668;2024-01-06T05:07:40;98037.31;;;0.97;77.58
4024;BME280;2026;51.002;13.668;2024-01-06T05:12:44;98042.19;;;1.08;77.19
4024;BME280;2026;51.002;13.668;2024-01-06T05:17:47;98050.47;;;1.20;76.77
4024;BME280;2026;51.002;13.668;2024-01-06T05:22:50;98052.59;;;1.08;76.35
4024;BME280;2026;51.002;13.668;2024-01-06T05:27:54;98043.00;;;1.08;77.50
4024;BME280;2026;51.002;13.668;2024-01-06T05:32:57;98057.81;;;1.08;77.84
4024;BME280;2026;51.002;13.668;2024-01-06T05:38:01;98058.13;;;1.13;78.12
4024;BME280;2026;51.002;13.668;2024-01-06T05:43:06;98066.41;;;1.25;78.16
4024;BME280;2026;51.002;13.668;2024-01-06T05:48:09;98056.31;;;1.30;78.40
4024;BME280;2026;51.002;13.668;2024-01-06T05:53:12;98074.84;;;1.27;78.67
4024;BME280;2026;51.002;13.668;2024-01-06T05:58:18;98082.63;;;0.53;82.88
4024;BME280;2026;51.002;13.668;2024-01-06T06:03:21;98088.66;;;0.62;82.74
4024;BME280;2026;51.002;13.668;2024-01-06T06:08:24;98091.63;;;0.91;81.36
4024;BME280;2026;51.002;13.668;2024-01-06T06:13:28;98107.22;;;1.08;81.06
4024;BME280;2026;51.002;13.668;2024-01-06T06:18:31;98113.06;;;1.35;79.60
4024;BME280;2026;51.002;13.668;2024-01-06T06:23:35;98117.41;;;0.60;82.12
4024;BME280;2026;51.002;13.668;2024-01-06T06:28:39;98116.16;;;1.05;80.90
4024;BME280;2026;51.002;13.668;2024-01-06T06:33:42;98120.56;;;1.21;81.05
4024;BME280;2026;51.002;13.668;2024-01-06T06:38:45;98128.03;;;1.41;80.03
4024;BME280;2026;51.002;13.668;2024-01-06T06:43:49;98134.97;;;0.66;83.63
4024;BME280;2026;51.002;13.668;2024-01-06T06:48:52;98140.53;;;1.21;81.59
4024;BME280;2026;51.002;13.668;2024-01-06T06:53:56;98152.25;;;1.41;80.94
4024;BME280;2026;51.002;13.668;2024-01-06T06:59:01;98156.31;;;1.52;80.65
4024;BME280;2026;51.002;13.668;2024-01-06T07:04:04;98158.91;;;0.86;83.71
4024;BME280;2026;51.002;13.668;2024-01-06T07:09:07;98172.59;;;1.54;81.25
4024;BME280;2026;51.002;13.668;2024-01-06T07:14:12;98174.03;;;1.57;81.41
4024;BME280;2026;51.002;13.668;2024-01-06T07:19:15;98175.91;;;0.72;85.16
4024;BME280;2026;51.002;13.668;2024-01-06T07:24:18;98186.56;;;1.28;83.01
4024;BME280;2026;51.002;13.668;2024-01-06T07:29:22;98188.53;;;1.43;82.59
4024;BME280;2026;51.002;13.668;2024-01-06T07:34:25;98203.97;;;1.20;83.10
4024;BME280;2026;51.002;13.668;2024-01-06T07:39:28;98209.03;;;1.54;82.23
4024;BME280;2026;51.002;13.668;2024-01-06T07:44:33;98201.69;;;1.82;81.54
4024;BME280;2026;51.002;13.668;2024-01-06T07:49:36;98208.81;;;0.90;85.07
4024;BME280;2026;51.002;13.668;2024-01-06T07:54:39;98213.56;;;1.52;83.31
4024;BME280;2026;51.002;13.668;2024-01-06T07:59:44;98219.09;;;1.82;81.83
4024;BME280;2026;51.002;13.668;2024-01-06T08:04:47;98220.53;;;2.01;81.19
4024;BME280;2026;51.002;13.668;2024-01-06T08:09:50;98228.53;;;1.91;81.58
4024;BME280;2026;51.002;13.668;2024-01-06T08:14:55;98229.00;;;2.03;81.72
4024;BME280;2026;51.002;13.668;2024-01-06T08:19:58;98238.44;;;2.12;81.40
4024;BME280;2026;51.002;13.668;2024-01-06T08:25:01;98236.94;;;2.18;81.66
4024;BME280;2026;51.002;13.668;2024-01-06T08:30:08;98248.16;;;2.35;82.01
4024;BME280;2026;51.002;13.668;2024-01-06T08:35:11;98251.63;;;2.19;82.35
4024;BME280;2026;51.002;13.668;2024-01-06T08:40:15;98257.06;;;2.57;81.88
4024;BME280;2026;51.002;13.668;2024-01-06T08:45:19;98263.47;;;2.86;80.82
4024;BME280;2026;51.002;13.668;2024-01-06T08:50:22;98263.13;;;2.89;81.27
4024;BME280;2026;51.002;13.668;2024-01-06T08:55:25;98275.41;;;2.80;81.08
4024;BME280;2026;51.002;13.668;2024-01-06T09:00:30;98285.47;;;2.91;79.47
4024;BME280;2026;51.002;13.668;2024-01-06T09:05:33;98290.66;;;3.00;80.37
4024;BME280;2026;51.002;13.668;2024-01-06T09:10:36;98283.06;;;2.82;81.26
4024;BME280;2026;51.002;13.668;2024-01-06T09:15:41;98293.66;;;2.80;82.14
4024;BME280;2026;51.002;13.668;2024-01-06T09:20:44;98301.94;;;2.84;82.40
4024;BME280;2026;51.002;13.668;2024-01-06T09:25:49;98308.91;;;3.31;80.83
4024;BME280;2026;51.002;13.668;2024-01-06T09:30:54;98316.69;;;3.62;79.77
4024;BME280;2026;51.002;13.668;2024-01-06T09:35:58;98316.91;;;3.61;79.75
4024;BME280;2026;51.002;13.668;2024-01-06T09:41:01;98315.00;;;3.23;81.82
4024;BME280;2026;51.002;13.668;2024-01-06T09:46:10;98322.06;;;3.14;81.54
4024;BME280;2026;51.002;13.668;2024-01-06T09:51:15;98319.63;;;3.67;79.97
4024;BME280;2026;51.002;13.668;2024-01-06T09:56:18;98311.19;;;3.80;79.65
4024;BME280;2026;51.002;13.668;2024-01-06T10:01:23;98317.59;;;3.78;79.63
4024;BME280;2026;51.002;13.668;2024-01-06T10:06:26;98316.69;;;3.85;79.07
4024;BME280;2026;51.002;13.668;2024-01-06T10:11:29;98312.75;;;3.43;81.08
4024;BME280;2026;51.002;13.668;2024-01-06T10:16:34;98314.94;;;3.63;81.13
4024;BME280;2026;51.002;13.668;2024-01-06T10:21:38;98305.69;;;4.13;77.51
4024;BME280;2026;51.002;13.668;2024-01-06T10:26:41;98319.66;;;4.58;76.79
4024;BME280;2026;51.002;13.668;2024-01-06T10:31:46;98316.31;;;4.79;76.32
4024;BME280;2026;51.002;13.668;2024-01-06T10:36:53;98319.13;;;4.78;76.98
4024;BME280;2026;51.002;13.668;2024-01-06T10:41:57;98315.66;;;5.07;75.82
4024;BME280;2026;51.002;13.668;2024-01-06T10:47:03;98307.13;;;5.35;75.16
4024;BME280;2026;51.002;13.668;2024-01-06T10:52:06;98305.75;;;5.39;75.31
4024;BME280;2026;51.002;13.668;2024-01-06T10:57:10;98310.81;;;5.62;74.15
4024;BME280;2026;51.002;13.668;2024-01-06T11:02:14;98310.66;;;5.64;72.26
4024;BME280;2026;51.002;13.668;2024-01-06T11:07:19;98310.78;;;5.04;73.43
4024;BME280;2026;51.002;13.668;2024-01-06T11:12:23;98321.44;;;5.03;74.18
4024;BME280;2026;51.002;13.668;2024-01-06T11:17:51;98326.59;;;5.47;71.76
4024;BME280;2026;51.002;13.668;2024-01-06T11:23:17;98322.75;;;4.92;76.24
4024;BME280;2026;51.002;13.668;2024-01-06T11:28:21;98321.91;;;4.91;76.47
4024;BME280;2026;51.002;13.668;2024-01-06T11:33:26;98325.28;;;5.36;75.03
4024;BME280;2026;51.002;13.668;2024-01-06T11:38:33;98331.28;;;5.01;74.73
4024;BME280;2026;51.002;13.668;2024-01-06T11:43:38;98327.66;;;5.31;74.73
4024;BME280;2026;51.002;13.668;2024-01-06T11:48:43;98327.69;;;5.53;74.69
4024;BME280;2026;51.002;13.668;2024-01-06T11:53:52;98322.81;;;5.13;74.90
4024;BME280;2026;51.002;13.668;2024-01-06T11:58:56;98323.09;;;5.40;75.12
4024;BME280;2026;51.002;13.668;2024-01-06T12:04:00;98325.50;;;5.20;74.79
4024;BME280;2026;51.002;13.668;2024-01-06T12:09:04;98317.94;;;5.10;75.41
4024;BME280;2026;51.002;13.668;2024-01-06T12:14:07;98332.94;;;5.02;76.12
4024;BME280;2026;51.002;13.668;2024-01-06T12:19:11;98341.38;;;5.18;75.30
4024;BME280;2026;51.002;13.668;2024-01-06T12:24:19;98333.75;;;4.72;77.06
4024;BME280;2026;51.002;13.668;2024-01-06T12:29:22;98343.03;;;4.75;77.67
4024;BME280;2026;51.002;13.668;2024-01-06T12:34:27;98344.63;;;4.46;78.65
4024;BME280;2026;51.002;13.668;2024-01-06T12:39:30;98338.00;;;4.58;78.46
4024;BME280;2026;51.002;13.668;2024-01-06T12:44:34;98345.44;;;4.47;78.73
4024;BME280;2026;51.002;13.668;2024-01-06T12:49:41;98341.72;;;4.26;78.77
4024;BME280;2026;51.002;13.668;2024-01-06T12:54:44;98338.47;;;4.24;79.55
4024;BME280;2026;51.002;13.668;2024-01-06T12:59:48;98349.03;;;4.31;79.30
4024;BME280;2026;51.002;13.668;2024-01-06T13:04:53;98354.09;;;4.32;79.08
4024;BME280;2026;51.002;13.668;2024-01-06T13:09:56;98362.53;;;4.19;80.39
4024;BME280;2026;51.002;13.668;2024-01-06T13:15:00;98374.38;;;4.07;81.11
4024;BME280;2026;51.002;13.668;2024-01-06T13:20:05;98373.38;;;3.85;82.05
4024;BME280;2026;51.002;13.668;2024-01-06T13:25:09;98385.94;;;3.90;82.36
4024;BME280;2026;51.002;13.668;2024-01-06T13:30:15;98388.25;;;3.84;82.68
4024;BME280;2026;51.002;13.668;2024-01-06T13:35:21;98388.31;;;3.99;82.61
4024;BME280;2026;51.002;13.668;2024-01-06T13:40:26;98394.81;;;4.03;82.29
4024;BME280;2026;51.002;13.668;2024-01-06T13:45:29;98389.53;;;3.57;84.72
4024;BME280;2026;51.002;13.668;2024-01-06T13:50:34;98397.25;;;3.50;83.61
4024;BME280;2026;51.002;13.668;2024-01-06T13:55:37;98401.88;;;3.40;83.93
4024;BME280;2026;51.002;13.668;2024-01-06T14:00:40;98397.97;;;2.97;84.68
4024;BME280;2026;51.002;13.668;2024-01-06T14:05:44;98406.16;;;3.33;83.50
4024;BME280;2026;51.002;13.668;2024-01-06T14:10:47;98409.00;;;3.15;83.76
4024;BME280;2026;51.002;13.668;2024-01-06T14:15:50;98417.94;;;3.60;81.80
4024;BME280;2026;51.002;13.668;2024-01-06T14:20:54;98421.34;;;3.29;82.40
4024;BME280;2026;51.002;13.668;2024-01-06T14:25:58;98436.63;;;2.93;84.23
4024;BME280;2026;51.002;13.668;2024-01-06T14:31:01;98430.34;;;3.19;83.24
4024;BME280;2026;51.002;13.668;2024-01-06T14:36:06;98441.88;;;2.76;84.71
4024;BME280;2026;51.002;13.668;2024-01-06T14:41:10;98449.44;;;3.11;83.66
4024;BME280;2026;51.002;13.668;2024-01-06T14:46:13;98460.13;;;2.85;84.11
4024;BME280;2026;51.002;13.668;2024-01-06T14:51:17;98464.97;;;2.96;83.30
4024;BME280;2026;51.002;13.668;2024-01-06T14:56:20;98468.75;;;2.77;84.24
4024;BME280;2026;51.002;13.668;2024-01-06T15:01:23;98463.72;;;2.75;83.88
4024;BME280;2026;51.002;13.668;2024-01-06T15:06:27;98479.84;;;2.38;85.15
4024;BME280;2026;51.002;13.668;2024-01-06T15:11:30;98487.50;;;2.64;84.39
4024;BME280;2026;51.002;13.668;2024-01-06T15:16:33;98483.59;;;2.76;82.88
4024;BME280;2026;51.002;13.668;2024-01-06T15:21:38;98501.50;;;2.30;84.81
4024;BME280;2026;51.002;13.668;2024-01-06T15:26:41;98509.53;;;2.62;83.36
4024;BME280;2026;51.002;13.668;2024-01-06T15:31:44;98518.50;;;2.67;82.62
4024;BME280;2026;51.002;13.668;2024-01-06T15:36:49;98532.25;;;2.18;84.50
4024;BME280;2026;51.002;13.668;2024-01-06T15:41:52;98527.03;;;2.02;85.81
4024;BME280;2026;51.002;13.668;2024-01-06T15:46:55;98516.47;;;2.28;84.38
4024;BME280;2026;51.002;13.668;2024-01-06T15:52:00;98530.22;;;2.55;83.06
4024;BME280;2026;51.002;13.668;2024-01-06T15:57:04;98532.97;;;1.86;85.65
4024;BME280;2026;51.002;13.668;2024-01-06T16:02:07;98536.31;;;2.13;84.71
4024;BME280;2026;51.002;13.668;2024-01-06T16:07:11;98539.53;;;1.98;85.25
4024;BME280;2026;51.002;13.668;2024-01-06T16:12:15;98545.31;;;2.35;83.93
4024;BME280;2026;51.002;13.668;2024-01-06T16:17:18;98545.50;;;2.50;82.34
4024;BME280;2026;51.002;13.668;2024-01-06T16:22:22;98543.69;;;2.26;81.04
4024;BME280;2026;51.002;13.668;2024-01-06T16:27:25;98538.00;;;2.30;81.25
4024;BME280;2026;51.002;13.668;2024-01-06T16:32:28;98540.75;;;2.20;81.54
4024;BME280;2026;51.002;13.668;2024-01-06T16:37:32;98538.56;;;1.99;82.32
4024;BME280;2026;51.002;13.668;2024-01-06T16:42:36;98546.28;;;2.17;81.68
4024;BME280;2026;51.002;13.668;2024-01-06T16:47:39;98548.09;;;2.33;80.78
4024;BME280;2026;51.002;13.668;2024-01-06T16:52:44;98557.06;;;1.88;82.65
4024;BME280;2026;51.002;13.668;2024-01-06T16:57:47;98564.53;;;2.26;81.08
4024;BME280;2026;51.002;13.668;2024-01-06T17:02:50;98571.03;;;2.21;80.97
4024;BME280;2026;51.002;13.668;2024-01-06T17:07:54;98576.13;;;2.39;80.44
4024;BME280;2026;51.002;13.668;2024-01-06T17:12:57;98576.34;;;2.03;81.92
4024;BME280;2026;51.002;13.668;2024-01-06T17:18:00;98588.91;;;1.74;81.94
4024;BME280;2026;51.002;13.668;2024-01-06T17:23:09;98594.66;;;1.51;82.89
4024;BME280;2026;51.002;13.668;2024-01-06T17:28:13;98606.41;;;1.90;81.54
4024;BME280;2026;51.002;13.668;2024-01-06T17:33:16;98601.69;;;1.59;83.60
4024;BME280;2026;51.002;13.668;2024-01-06T17:38:21;98612.59;;;1.54;81.99
4024;BME280;2026;51.002;13.668;2024-01-06T17:43:24;98615.84;;;1.56;83.15
4024;BME280;2026;51.002;13.668;2024-01-06T17:48:27;98626.91;;;1.58;82.88
4024;BME280;2026;51.002;13.668;2024-01-06T17:53:31;98625.75;;;1.79;82.34
4024;BME280;2026;51.002;13.668;2024-01-06T17:58:34;98623.25;;;1.69;82.25
4024;BME280;2026;51.002;13.668;2024-01-06T18:03:37;98618.03;;;1.69;81.67
4024;BME280;2026;51.002;13.668;2024-01-06T18:08:42;98634.81;;;1.48;82.23
4024;BME280;2026;51.002;13.668;2024-01-06T18:13:44;98635.25;;;1.18;83.04
4024;BME280;2026;51.002;13.668;2024-01-06T18:18:47;98645.94;;;1.33;83.39
4024;BME280;2026;51.002;13.668;2024-01-06T18:23:52;98643.94;;;1.26;83.51
4024;BME280;2026;51.002;13.668;2024-01-06T18:28:55;98650.53;;;1.21;83.53
4024;BME280;2026;51.002;13.668;2024-01-06T18:33:58;98654.78;;;0.86;85.08
4024;BME280;2026;51.002;13.668;2024-01-06T18:39:03;98663.50;;;0.95;84.91
4024;BME280;2026;51.002;13.668;2024-01-06T18:44:06;98672.72;;;1.07;84.75
4024;BME280;2026;51.002;13.668;2024-01-06T18:49:12;98674.81;;;1.21;83.86
4024;BME280;2026;51.002;13.668;2024-01-06T18:54:16;98677.34;;;1.13;83.85
4024;BME280;2026;51.002;13.668;2024-01-06T18:59:31;98685.34;;;1.20;83.63
4024;BME280;2026;51.002;13.668;2024-01-06T19:04:35;98684.19;;;0.68;84.87
4024;BME280;2026;51.002;13.668;2024-01-06T19:09:40;98689.97;;;0.34;86.79
4024;BME280;2026;51.002;13.668;2024-01-06T19:14:42;98689.97;;;0.62;85.62
4024;BME280;2026;51.002;13.668;2024-01-06T19:19:47;98698.28;;;0.38;86.01
4024;BME280;2026;51.002;13.668;2024-01-06T19:24:53;98703.16;;;0.51;86.47
4024;BME280;2026;51.002;13.668;2024-01-06T19:29:57;98703.09;;;0.05;87.72
4024;BME280;2026;51.002;13.668;2024-01-06T19:35:00;98703.22;;;0.04;88.05
4024;BME280;2026;51.002;13.668;2024-01-06T19:40:06;98706.22;;;0.09;87.50
4024;BME280;2026;51.002;13.668;2024-01-06T19:45:09;98715.09;;;0.06;87.18
4024;BME280;2026;51.002;13.668;2024-01-06T19:50:12;98719.41;;;0.35;86.32
4024;BME280;2026;51.002;13.668;2024-01-06T19:55:16;98738.97;;;0.20;86.54
4024;BME280;2026;51.002;13.668;2024-01-06T20:00:21;98733.69;;;0.02;87.03
4024;BME280;2026;51.002;13.668;2024-01-06T20:05:24;98745.69;;;0.22;85.67
4024;BME280;2026;51.002;13.668;2024-01-06T20:10:28;98759.97;;;-0.02;86.57
4024;BME280;2026;51.002;13.668;2024-01-06T20:15:31;98759.47;;;-0.25;87.83
4024;BME280;2026;51.002;13.668;2024-01-06T20:20:34;98754.41;;;-0.26;87.52
4024;BME280;2026;51.002;13.668;2024-01-06T20:25:39;98760.78;;;-0.01;86.49
4024;BME280;2026;51.002;13.668;2024-01-06T20:30:44;98756.25;;;0.11;85.73
4024;BME280;2026;51.002;13.668;2024-01-06T20:35:47;98756.72;;;-0.33;87.06
4024;BME280;2026;51.002;13.668;2024-01-06T20:40:52;98749.75;;;-0.32;86.65
4024;BME280;2026;51.002;13.668;2024-01-06T20:45:54;98755.34;;;-0.27;86.49
4024;BME280;2026;51.002;13.668;2024-01-06T20:50:57;98746.50;;;-0.44;86.68
4024;BME280;2026;51.002;13.668;2024-01-06T20:56:04;98755.22;;;-0.16;85.38
4024;BME280;2026;51.002;13.668;2024-01-06T21:01:08;98759.59;;;-0.26;85.11
4024;BME280;2026;51.002;13.668;2024-01-06T21:06:11;98756.88;;;-0.25;85.34
4024;BME280;2026;51.002;13.668;2024-01-06T21:11:16;98758.06;;;-0.19;84.58
4024;BME280;2026;51.002;13.668;2024-01-06T21:16:19;98759.72;;;-0.38;85.75
4024;BME280;2026;51.002;13.668;2024-01-06T21:21:22;98763.16;;;-0.76;87.01
4024;BME280;2026;51.002;13.668;2024-01-06T21:26:26;98764.91;;;-0.77;87.05
4024;BME280;2026;51.002;13.668;2024-01-06T21:31:30;98775.66;;;-1.01;87.24
4024;BME280;2026;51.002;13.668;2024-01-06T21:36:33;98778.81;;;-0.87;86.50
4024;BME280;2026;51.002;13.668;2024-01-06T21:41:40;98776.25;;;-0.58;85.84
4024;BME280;2026;51.002;13.668;2024-01-06T21:46:43;98779.38;;;-0.74;85.56
4024;BME280;2026;51.002;13.668;2024-01-06T21:51:46;98786.47;;;-1.26;87.65
4024;BME280;2026;51.002;13.668;2024-01-06T21:56:51;98786.16;;;-1.02;86.79
4024;BME280;2026;51.002;13.668;2024-01-06T22:01:54;98785.28;;;-1.22;88.35
4024;BME280;2026;51.002;13.668;2024-01-06T22:06:57;98790.41;;;-0.91;86.86
4024;BME280;2026;51.002;13.668;2024-01-06T22:12:01;98788.47;;;-1.09;86.67
4024;BME280;2026;51.002;13.668;2024-01-06T22:17:05;98794.72;;;-1.12;87.04
4024;BME280;2026;51.002;13.668;2024-01-06T22:22:08;98803.91;;;-0.88;86.80
4024;BME280;2026;51.002;13.668;2024-01-06T22:27:12;98811.38;;;-1.04;85.76
4024;BME280;2026;51.002;13.668;2024-01-06T22:32:16;98810.44;;;-1.03;86.38
4024;BME280;2026;51.002;13.668;2024-01-06T22:37:19;98810.91;;;-1.19;85.76
4024;BME280;2026;51.002;13.668;2024-01-06T22:42:23;98810.09;;;-1.20;86.82
4024;BME280;2026;51.002;13.668;2024-01-06T22:47:26;98798.97;;;-1.10;86.01
4024;BME280;2026;51.002;13.668;2024-01-06T22:52:29;98814.75;;;-1.23;85.92
4024;BME280;2026;51.002;13.668;2024-01-06T22:57:34;98822.31;;;-1.41;86.75
4024;BME280;2026;51.002;13.668;2024-01-06T23:02:38;98824.28;;;-1.24;85.79
4024;BME280;2026;51.002;13.668;2024-01-06T23:07:41;98834.16;;;-1.08;84.20
4024;BME280;2026;51.002;13.668;2024-01-06T23:12:46;98845.25;;;-1.37;85.31
4024;BME280;2026;51.002;13.668;2024-01-06T23:17:49;98846.91;;;-1.57;85.97
4024;BME280;2026;51.002;13.668;2024-01-06T23:22:52;98853.78;;;-1.46;85.48
4024;BME280;2026;51.002;13.668;2024-01-06T23:27:56;98862.09;;;-1.52;84.39
4024;BME280;2026;51.002;13.668;2024-01-06T23:32:59;98858.97;;;-1.46;84.26
4024;BME280;2026;51.002;13.668;2024-01-06T23:38:03;98852.72;;;-1.64;85.06
4024;BME280;2026;51.002;13.668;2024-01-06T23:43:07;98867.75;;;-1.37;83.53
4024;BME280;2026;51.002;13.668;2024-01-06T23:48:12;98870.84;;;-1.64;83.95
4024;BME280;2026;51.002;13.668;2024-01-06T23:53:14;98870.97;;;-1.87;84.75
4024;BME280;2026;51.002;13.668;2024-01-06T23:58:20;98869.16;;;-1.75;84.31
